Time;durP1;ratioP1;P1;durP2;ratioP2;P2;SDS_P1;SDS_P2;PMS_P1;PMS_P2;Temp;Humidity;BMP_temperature;BMP_pressure;BME280_temperature;BME280_humidity;BME280_pressure;Samples;Min_cycle;Max_cycle;Signal;HPM_P1;HPM_P2
2024/04/13 00:01:29;;;;;;;1.67;1.20;;;20.20;60.00;;;;;;5269685;26;20006;-72
2024/04/13 00:03:55;;;;;;;2.30;1.10;;;20.20;60.00;;;;;;5266641;26;20339;-73
2024/04/13 00:06:21;;;;;;;1.58;1.20;;;20.20;60.00;;;;;;5272346;26;20038;-74
2024/04/13 00:08:46;;;;;;;1.90;1.70;;;20.20;60.00;;;;;;5269721;26;20476;-72
2024/04/13 00:11:12;;;;;;;1.25;1.05;;;20.20;60.00;;;;;;5269446;26;20002;-71
2024/04/13 00:13:38;;;;;;;2.17;1.17;;;20.20;60.00;;;;;;5263627;26;20449;-72
2024/04/13 00:16:04;;;;;;;2.15;1.25;;;20.20;60.00;;;;;;5271700;26;20405;-72
2024/04/13 00:18:33;;;;;;;1.35;1.10;;;20.20;60.00;;;;;;5270000;26;20018;-72
2024/04/13 00:21:00;;;;;;;1.40;1.00;;;20.20;60.00;;;;;;5261572;26;20504;-72
2024/04/13 00:23:25;;;;;;;1.30;0.98;;;20.20;60.00;;;;;;5266433;26;20374;-72
2024/04/13 00:25:53;;;;;;;1.20;0.90;;;20.20;60.00;;;;;;5265573;26;20013;-73
2024/04/13 00:28:18;;;;;;;1.35;1.25;;;20.20;60.00;;;;;;5259268;26;20007;-73
2024/04/13 00:30:45;;;;;;;1.85;1.20;;;20.20;60.00;;;;;;5271247;26;20349;-73
2024/04/13 00:33:11;;;;;;;1.25;0.95;;;20.20;60.10;;;;;;5263690;26;20092;-69
2024/04/13 00:35:37;;;;;;;1.92;1.30;;;20.20;60.10;;;;;;5273899;26;20026;-71
2024/04/13 00:38:03;;;;;;;1.45;0.88;;;20.20;60.10;;;;;;5270883;26;20034;-72
2024/04/13 00:40:29;;;;;;;1.17;1.08;;;20.20;60.00;;;;;;5267898;26;20007;-70
2024/04/13 00:43:08;;;;;;;1.58;1.05;;;20.20;60.10;;;;;;5266222;26;20053;-72
2024/04/13 00:45:42;;;;;;;1.10;1.00;;;20.20;60.10;;;;;;5266773;26;20054;-72
2024/04/13 00:48:11;;;;;;;1.13;0.80;;;20.20;60.10;;;;;;5261301;26;20002;-72
2024/04/13 00:50:37;;;;;;;1.20;0.77;;;20.20;60.10;;;;;;5269152;26;20006;-72
2024/04/13 00:53:03;;;;;;;1.77;1.17;;;20.20;60.10;;;;;;5274907;26;20010;-72
2024/04/13 00:55:29;;;;;;;1.35;1.00;;;20.20;60.10;;;;;;5270076;26;20338;-72
2024/04/13 00:57:57;;;;;;;1.30;1.20;;;20.20;60.10;;;;;;5259256;26;20007;-73
2024/04/13 01:00:23;;;;;;;1.50;1.17;;;20.20;60.10;;;;;;5255590;26;20381;-73
2024/04/13 01:02:48;;;;;;;1.25;1.00;;;20.20;60.10;;;;;;5264028;26;20010;-72
2024/04/13 01:05:14;;;;;;;0.85;0.60;;;20.20;60.20;;;;;;5262197;26;20040;-72
2024/04/13 01:07:40;;;;;;;1.27;0.90;;;20.20;60.20;;;;;;5267578;26;20001;-72
2024/04/13 01:10:11;;;;;;;1.05;0.80;;;20.20;60.20;;;;;;5259463;26;19998;-71
2024/04/13 01:12:37;;;;;;;1.00;0.93;;;20.10;60.20;;;;;;5264191;26;20545;-72
2024/04/13 01:15:03;;;;;;;1.90;1.08;;;20.10;60.30;;;;;;5262935;26;20026;-72
2024/04/13 01:17:28;;;;;;;1.45;1.15;;;20.10;60.30;;;;;;5262425;26;20517;-72
2024/04/13 01:19:54;;;;;;;1.05;0.90;;;20.10;60.30;;;;;;5261995;26;20438;-73
2024/04/13 01:22:21;;;;;;;1.20;1.00;;;20.10;60.40;;;;;;5264107;26;20002;-73
2024/04/13 01:24:47;;;;;;;1.60;1.00;;;20.10;60.40;;;;;;5268357;26;20653;-72
2024/04/13 01:27:13;;;;;;;1.75;0.90;;;20.10;60.40;;;;;;5257339;26;20019;-70
2024/04/13 01:29:39;;;;;;;1.20;1.10;;;20.10;60.60;;;;;;5275489;26;19997;-73
2024/04/13 01:32:05;;;;;;;1.30;1.00;;;20.10;60.50;;;;;;5273009;26;20330;-74
2024/04/13 01:34:30;;;;;;;1.27;1.17;;;20.10;60.50;;;;;;5265693;26;20013;-72
2024/04/13 01:36:56;;;;;;;1.35;0.90;;;20.10;60.60;;;;;;5268028;26;19998;-73
2024/04/13 01:39:21;;;;;;;1.55;1.30;;;20.10;60.60;;;;;;5274021;26;20062;-73
2024/04/13 01:41:54;;;;;;;1.90;1.10;;;20.00;60.60;;;;;;5270651;26;20002;-73
2024/04/13 01:44:20;;;;;;;0.80;0.73;;;20.10;60.60;;;;;;5268632;26;20026;-73
2024/04/13 01:46:45;;;;;;;1.58;0.75;;;20.00;60.60;;;;;;5269351;26;20077;-73
2024/04/13 01:49:11;;;;;;;1.35;0.93;;;20.00;60.60;;;;;;5265452;26;20076;-72
2024/04/13 01:51:36;;;;;;;0.90;0.80;;;20.00;60.60;;;;;;5268194;26;20030;-72
2024/04/13 01:54:03;;;;;;;1.20;0.90;;;20.00;60.60;;;;;;5272358;26;19994;-72
2024/04/13 01:56:29;;;;;;;1.48;0.98;;;20.00;60.60;;;;;;5269851;26;20960;-73
2024/04/13 01:58:55;;;;;;;0.60;0.60;;;20.00;60.60;;;;;;5264860;26;19999;-73
2024/04/13 02:01:21;;;;;;;1.50;0.88;;;20.00;60.60;;;;;;5257801;26;20508;-71
2024/04/13 02:03:47;;;;;;;1.45;0.98;;;20.00;60.60;;;;;;5263754;26;20001;-72
2024/04/13 02:06:13;;;;;;;0.82;0.82;;;20.00;60.60;;;;;;5253871;26;20162;-72
2024/04/13 02:08:38;;;;;;;0.95;0.88;;;20.00;60.60;;;;;;5250227;26;20015;-72
2024/04/13 02:11:07;;;;;;;1.02;0.93;;;20.00;60.60;;;;;;5253466;26;20002;-72
2024/04/13 02:13:33;;;;;;;1.52;0.75;;;20.00;60.60;;;;;;5276579;26;20184;-72
2024/04/13 02:16:02;;;;;;;0.80;0.80;;;20.00;60.60;;;;;;5271865;26;20020;-72
2024/04/13 02:18:27;;;;;;;0.98;0.90;;;20.00;60.60;;;;;;5286805;26;20476;-73
2024/04/13 02:20:53;;;;;;;1.00;0.82;;;20.00;60.60;;;;;;5260179;26;20079;-75
2024/04/13 02:23:19;;;;;;;1.30;0.90;;;20.00;60.70;;;;;;5277888;26;20737;-72
2024/04/13 02:25:49;;;;;;;1.30;0.77;;;20.00;60.70;;;;;;5269852;26;20013;-72
2024/04/13 02:28:15;;;;;;;1.23;0.80;;;20.00;60.70;;;;;;5274040;26;20009;-72
2024/04/13 02:30:41;;;;;;;0.80;0.80;;;20.00;60.70;;;;;;5266756;26;20002;-72
2024/04/13 02:33:07;;;;;;;1.58;0.75;;;20.00;60.70;;;;;;5261651;27;20012;-72
2024/04/13 02:35:33;;;;;;;0.80;0.80;;;20.00;60.70;;;;;;5275006;26;20003;-71
2024/04/13 02:37:59;;;;;;;1.27;0.95;;;20.00;60.70;;;;;;5268352;26;20007;-72
2024/04/13 02:40:24;;;;;;;0.88;0.63;;;19.90;61.30;;;;;;5262765;26;20014;-72
2024/04/13 02:42:53;;;;;;;0.60;0.57;;;20.00;60.80;;;;;;5286213;26;20014;-72
2024/04/13 02:45:19;;;;;;;0.77;0.77;;;19.90;60.70;;;;;;5265819;26;20441;-72
2024/04/13 02:47:45;;;;;;;1.08;1.00;;;19.90;60.70;;;;;;5276498;26;20026;-72
2024/04/13 02:50:11;;;;;;;0.77;0.70;;;19.90;60.70;;;;;;5250319;26;20006;-71
2024/04/13 02:52:38;;;;;;;0.85;0.82;;;19.90;60.80;;;;;;5258750;26;20012;-71
2024/04/13 02:55:07;;;;;;;1.15;0.90;;;19.90;60.70;;;;;;5260406;26;20002;-71
2024/04/13 02:57:33;;;;;;;1.15;0.93;;;19.90;60.80;;;;;;5253447;26;20633;-72
2024/04/13 02:59:58;;;;;;;0.70;0.57;;;19.90;60.80;;;;;;5266680;26;20023;-72
2024/04/13 03:02:24;;;;;;;0.60;0.60;;;19.90;60.80;;;;;;5252142;26;20406;-71
2024/04/13 03:04:53;;;;;;;1.75;0.80;;;19.90;60.80;;;;;;5247037;26;20505;-70
2024/04/13 03:07:19;;;;;;;0.57;0.57;;;19.90;60.80;;;;;;5242334;26;19999;-73
2024/04/13 03:09:48;;;;;;;0.63;0.63;;;19.90;60.80;;;;;;5263333;26;20500;-69
2024/04/13 03:12:15;;;;;;;1.30;1.10;;;19.90;60.80;;;;;;5258310;26;20116;-71
2024/04/13 03:14:42;;;;;;;1.08;0.98;;;19.90;60.80;;;;;;5248354;26;20006;-70
2024/04/13 03:17:08;;;;;;;1.63;1.00;;;19.90;60.80;;;;;;5246711;26;20009;-72
2024/04/13 03:19:33;;;;;;;0.70;0.70;;;19.90;60.80;;;;;;5258117;26;20011;-69
2024/04/13 03:21:59;;;;;;;0.75;0.70;;;19.90;60.80;;;;;;5263465;26;20456;-70
2024/04/13 03:24:25;;;;;;;0.70;0.70;;;19.90;60.80;;;;;;5250323;26;20014;-69
2024/04/13 03:26:51;;;;;;;2.00;1.27;;;19.90;60.90;;;;;;5251679;26;20035;-72
2024/04/13 03:29:16;;;;;;;0.95;0.85;;;19.90;60.80;;;;;;5260398;26;20076;-71
2024/04/13 03:31:42;;;;;;;1.35;0.70;;;19.90;60.80;;;;;;5254753;26;20011;-72
2024/04/13 03:34:08;;;;;;;0.98;0.77;;;19.90;60.80;;;;;;5248243;26;19999;-69
2024/04/13 03:36:34;;;;;;;1.30;0.93;;;19.90;60.80;;;;;;5244402;26;20006;-72
2024/04/13 03:38:59;;;;;;;1.65;0.93;;;19.90;60.80;;;;;;5252101;26;19998;-72
2024/04/13 03:41:25;;;;;;;1.05;0.70;;;19.90;60.90;;;;;;5241344;26;20014;-72
2024/04/13 03:43:51;;;;;;;0.70;0.70;;;19.80;60.80;;;;;;5261969;26;20002;-70
2024/04/13 03:46:16;;;;;;;1.15;0.65;;;19.80;60.80;;;;;;5262368;26;20030;-71
2024/04/13 03:48:42;;;;;;;0.80;0.80;;;19.80;60.80;;;;;;5251162;26;20002;-68
2024/04/13 03:51:11;;;;;;;0.70;0.70;;;19.80;60.80;;;;;;5249442;26;20014;-71
2024/04/13 03:53:36;;;;;;;0.80;0.65;;;19.80;60.80;;;;;;5237089;26;20443;-71
2024/04/13 03:56:02;;;;;;;1.15;0.90;;;19.80;60.80;;;;;;5265629;26;20077;-67
2024/04/13 03:58:28;;;;;;;1.27;0.80;;;19.80;60.80;;;;;;5256130;26;20030;-68
2024/04/13 04:00:54;;;;;;;0.90;0.80;;;19.90;60.90;;;;;;5243415;26;20007;-69
2024/04/13 04:03:20;;;;;;;0.90;0.90;;;19.80;60.80;;;;;;5253419;26;20014;-70
2024/04/13 04:05:49;;;;;;;0.93;0.77;;;19.80;60.80;;;;;;5243713;26;20755;-67
2024/04/13 04:08:14;;;;;;;0.93;0.80;;;19.80;60.80;;;;;;5255143;26;20025;-67
2024/04/13 04:10:40;;;;;;;0.77;0.75;;;19.80;60.80;;;;;;5250789;26;20007;-70
2024/04/13 04:13:06;;;;;;;0.70;0.70;;;19.80;60.90;;;;;;5246509;26;20017;-68
2024/04/13 04:15:32;;;;;;;0.98;0.70;;;19.80;60.90;;;;;;5260671;26;20018;-71
2024/04/13 04:17:58;;;;;;;1.00;0.90;;;19.80;61.50;;;;;;5248193;26;20091;-72
2024/04/13 04:20:24;;;;;;;1.15;0.85;;;19.80;61.00;;;;;;5256038;26;20006;-72
2024/04/13 04:22:50;;;;;;;1.13;0.80;;;19.80;60.80;;;;;;5243478;26;20014;-71
2024/04/13 04:25:18;;;;;;;0.73;0.68;;;19.80;60.80;;;;;;5232209;26;20469;-72
2024/04/13 04:27:43;;;;;;;1.35;0.90;;;19.80;60.90;;;;;;5255858;26;20006;-72
2024/04/13 04:30:09;;;;;;;1.05;0.70;;;19.80;60.80;;;;;;5255872;26;20421;-69
2024/04/13 04:32:34;;;;;;;1.23;0.93;;;19.80;60.90;;;;;;5245137;26;20009;-74
2024/04/13 04:35:00;;;;;;;1.05;0.88;;;19.80;60.80;;;;;;5256576;26;20015;-70
2024/04/13 04:37:25;;;;;;;0.68;0.65;;;19.80;61.50;;;;;;5255423;26;20002;-74
2024/04/13 04:39:51;;;;;;;1.05;0.80;;;19.80;60.90;;;;;;5248776;26;20062;-72
2024/04/13 04:42:16;;;;;;;1.10;0.80;;;19.80;60.80;;;;;;5264070;26;20025;-74
2024/04/13 04:44:42;;;;;;;1.27;0.88;;;19.80;60.80;;;;;;5262243;26;20037;-72
2024/04/13 04:47:07;;;;;;;0.88;0.82;;;19.80;60.90;;;;;;5257220;26;20010;-69
2024/04/13 04:49:35;;;;;;;1.00;0.90;;;19.80;60.80;;;;;;5264520;26;20480;-70
2024/04/13 04:52:01;;;;;;;1.58;0.88;;;19.80;60.80;;;;;;5267455;26;20006;-70
2024/04/13 04:54:26;;;;;;;0.88;0.70;;;19.80;60.80;;;;;;5251319;26;20078;-73
2024/04/13 04:56:51;;;;;;;1.13;1.02;;;19.80;60.80;;;;;;5263920;26;20029;-74
2024/04/13 04:59:17;;;;;;;1.13;0.90;;;19.80;60.80;;;;;;5248749;26;20011;-73
2024/04/13 05:01:42;;;;;;;0.80;0.77;;;19.80;60.70;;;;;;5266763;26;20652;-72
2024/04/13 05:04:08;;;;;;;0.80;0.80;;;19.80;60.70;;;;;;5247266;26;20058;-71
2024/04/13 05:06:34;;;;;;;0.60;0.60;;;19.80;60.70;;;;;;5248423;26;20017;-73
2024/04/13 05:08:59;;;;;;;0.85;0.70;;;19.80;60.70;;;;;;5262969;26;20393;-69
2024/04/13 05:11:25;;;;;;;0.70;0.70;;;19.80;60.70;;;;;;5259065;26;20003;-73
2024/04/13 05:13:51;;;;;;;1.00;0.80;;;19.80;60.70;;;;;;5243108;26;20022;-74
2024/04/13 05:16:16;;;;;;;2.28;0.77;;;19.80;60.70;;;;;;5251451;26;20018;-73
2024/04/13 05:18:42;;;;;;;1.08;0.98;;;19.80;60.60;;;;;;5258574;26;20013;-73
2024/04/13 05:21:07;;;;;;;1.30;0.98;;;19.90;60.70;;;;;;5244552;26;20007;-71
2024/04/13 05:23:33;;;;;;;0.73;0.70;;;19.80;60.70;;;;;;5248142;26;20003;-74
2024/04/13 05:25:58;;;;;;;1.00;0.80;;;19.80;60.60;;;;;;5256045;26;19998;-74
2024/04/13 05:28:26;;;;;;;0.98;0.80;;;19.80;60.60;;;;;;5257536;26;20104;-73
2024/04/13 05:31:00;;;;;;;0.60;0.60;;;19.80;60.60;;;;;;5266832;26;20706;-74
2024/04/13 05:33:26;;;;;;;1.95;0.98;;;19.90;60.70;;;;;;5248534;26;20444;-72
2024/04/13 05:35:52;;;;;;;1.08;0.80;;;19.80;60.60;;;;;;5267804;26;20017;-71
2024/04/13 05:38:18;;;;;;;0.90;0.90;;;19.90;60.70;;;;;;5267208;26;20003;-72
2024/04/13 05:40:44;;;;;;;1.35;0.98;;;19.90;60.60;;;;;;5254431;26;20363;-71
2024/04/13 05:43:09;;;;;;;1.13;0.70;;;19.90;60.60;;;;;;5267475;26;20780;-69
2024/04/13 05:45:35;;;;;;;0.98;0.88;;;19.90;60.70;;;;;;5258073;26;20007;-70
2024/04/13 05:48:01;;;;;;;0.85;0.80;;;19.90;60.70;;;;;;5262869;26;20017;-68
2024/04/13 05:50:27;;;;;;;0.63;0.63;;;19.90;60.60;;;;;;5267839;26;20457;-70
2024/04/13 05:52:52;;;;;;;1.02;0.88;;;19.90;60.60;;;;;;5258240;26;20011;-72
2024/04/13 05:55:18;;;;;;;0.70;0.70;;;19.90;60.60;;;;;;5276010;26;20404;-71
2024/04/13 05:57:44;;;;;;;1.17;0.68;;;19.90;60.60;;;;;;5272621;26;20001;-72
2024/04/13 06:00:09;;;;;;;1.13;1.02;;;19.90;60.60;;;;;;5272037;26;20006;-73
2024/04/13 06:02:35;;;;;;;1.17;0.80;;;19.90;60.60;;;;;;5259316;26;20363;-73
2024/04/13 06:05:01;;;;;;;1.70;0.82;;;19.90;60.50;;;;;;5260244;26;20010;-73
2024/04/13 06:07:26;;;;;;;2.25;0.77;;;20.00;60.60;;;;;;5252279;26;20369;-74
2024/04/13 06:09:52;;;;;;;1.10;0.98;;;19.90;60.60;;;;;;5264833;26;20644;-73
2024/04/13 06:12:18;;;;;;;0.80;0.80;;;19.90;60.60;;;;;;5260981;26;20014;-73
2024/04/13 06:14:48;;;;;;;0.80;0.60;;;19.90;60.60;;;;;;5262132;26;20002;-73
2024/04/13 06:17:14;;;;;;;0.85;0.80;;;19.90;60.60;;;;;;5253776;26;20003;-73
2024/04/13 06:19:40;;;;;;;0.80;0.80;;;19.90;60.60;;;;;;5260270;26;22586;-73
2024/04/13 06:22:08;;;;;;;1.02;0.70;;;19.90;60.70;;;;;;5264651;26;20871;-70
2024/04/13 06:24:34;;;;;;;0.95;0.93;;;19.90;60.60;;;;;;5260711;26;20014;-72
2024/04/13 06:26:59;;;;;;;1.10;1.00;;;19.90;60.60;;;;;;5261925;26;20009;-76
2024/04/13 06:29:25;;;;;;;1.02;0.70;;;19.90;60.60;;;;;;5274536;26;20442;-72
2024/04/13 06:31:50;;;;;;;1.05;0.95;;;20.00;60.60;;;;;;5262699;26;20013;-72
2024/04/13 06:34:16;;;;;;;1.00;0.90;;;20.00;60.60;;;;;;5258039;26;20337;-73
2024/04/13 06:36:41;;;;;;;0.82;0.60;;;20.00;60.50;;;;;;5261133;26;19998;-73
2024/04/13 06:39:07;;;;;;;1.63;0.90;;;20.00;60.50;;;;;;5239324;26;19999;-68
2024/04/13 06:41:33;;;;;;;0.85;0.70;;;20.00;60.30;;;;;;5254968;26;20009;-73
2024/04/13 06:44:03;;;;;;;0.88;0.68;;;20.00;60.40;;;;;;5255781;26;20014;-71
2024/04/13 06:46:28;;;;;;;1.60;0.98;;;20.00;60.50;;;;;;5259152;26;20458;-71
2024/04/13 06:48:54;;;;;;;1.10;0.80;;;20.00;60.60;;;;;;5262982;26;20002;-71
2024/04/13 06:51:20;;;;;;;0.85;0.73;;;20.00;60.60;;;;;;5252014;26;20922;-74
2024/04/13 06:53:46;;;;;;;1.15;0.85;;;20.00;60.70;;;;;;5262110;26;20081;-68
2024/04/13 06:56:13;;;;;;;1.67;0.80;;;20.00;60.60;;;;;;5252669;26;20398;-68
2024/04/13 06:58:39;;;;;;;1.10;0.93;;;20.00;60.60;;;;;;5256767;26;20021;-71
2024/04/13 07:01:04;;;;;;;3.25;0.82;;;20.00;60.70;;;;;;5266324;26;20438;-70
2024/04/13 07:03:30;;;;;;;2.15;0.90;;;20.00;60.60;;;;;;5203594;26;20006;-70
2024/04/13 07:06:00;;;;;;;1.30;0.88;;;20.00;60.70;;;;;;5273672;26;20011;-71
2024/04/13 07:08:26;;;;;;;0.82;0.70;;;20.00;60.60;;;;;;5247478;26;20084;-71
2024/04/13 07:10:53;;;;;;;1.25;0.65;;;20.00;60.60;;;;;;5255493;26;20025;-71
2024/04/13 07:13:19;;;;;;;2.67;1.00;;;20.00;60.70;;;;;;5262016;26;20076;-69
2024/04/13 07:15:44;;;;;;;2.28;0.98;;;20.00;60.60;;;;;;5254879;26;20033;-71
2024/04/13 07:18:10;;;;;;;2.28;1.17;;;20.00;60.80;;;;;;5259602;26;20085;-73
2024/04/13 07:20:35;;;;;;;3.00;1.20;;;20.00;60.60;;;;;;5261612;26;20080;-71
2024/04/13 07:23:01;;;;;;;1.77;0.90;;;20.10;60.80;;;;;;5265935;26;20003;-66
2024/04/13 07:25:28;;;;;;;0.93;0.73;;;20.10;60.80;;;;;;5258991;26;20014;-67
2024/04/13 07:27:53;;;;;;;2.28;1.08;;;20.10;60.90;;;;;;5252029;26;20014;-66
2024/04/13 07:30:19;;;;;;;1.50;1.17;;;20.00;60.70;;;;;;5269602;26;20006;-68
2024/04/13 07:32:44;;;;;;;1.27;0.80;;;20.00;60.70;;;;;;5259504;26;20014;-70
2024/04/13 07:35:10;;;;;;;1.33;1.08;;;20.00;60.70;;;;;;5263471;26;20081;-67
2024/04/13 07:37:35;;;;;;;1.98;1.23;;;20.00;60.70;;;;;;5267545;26;20339;-67
2024/04/13 07:40:01;;;;;;;3.05;1.08;;;20.10;60.80;;;;;;5258330;26;20025;-68
2024/04/13 07:42:26;;;;;;;2.45;1.00;;;20.10;60.70;;;;;;5263629;26;20530;-68
2024/04/13 07:44:52;;;;;;;1.75;1.13;;;20.10;60.70;;;;;;5262257;26;20005;-66
2024/04/13 07:47:17;;;;;;;1.05;0.85;;;20.10;60.70;;;;;;5256057;26;20019;-64
2024/04/13 07:49:43;;;;;;;1.70;0.80;;;20.10;60.70;;;;;;5261743;26;20009;-68
2024/04/13 07:52:09;;;;;;;2.13;1.10;;;20.10;60.70;;;;;;5270385;26;19999;-68
2024/04/13 07:54:34;;;;;;;2.58;0.90;;;20.10;60.70;;;;;;5266053;26;20333;-65
2024/04/13 07:57:00;;;;;;;1.00;0.80;;;20.10;60.60;;;;;;5262056;26;20698;-66
2024/04/13 07:59:25;;;;;;;3.38;1.20;;;20.10;60.60;;;;;;5265770;26;20323;-69
2024/04/13 08:01:51;;;;;;;1.83;0.90;;;20.00;60.50;;;;;;5257294;26;20471;-68
2024/04/13 08:04:17;;;;;;;2.33;0.82;;;20.10;60.60;;;;;;5259324;26;19999;-68
2024/04/13 08:06:42;;;;;;;1.70;0.98;;;20.10;60.60;;;;;;5272262;26;20003;-72
2024/04/13 08:09:08;;;;;;;1.45;1.00;;;20.10;60.70;;;;;;5274986;26;20003;-70
2024/04/13 08:11:33;;;;;;;2.88;1.10;;;20.10;60.70;;;;;;5271657;26;20010;-71
2024/04/13 08:13:58;;;;;;;2.60;1.48;;;20.00;60.70;;;;;;5267179;26;20445;-71
2024/04/13 08:16:25;;;;;;;1.73;1.20;;;20.00;60.70;;;;;;5262235;26;20038;-72
2024/04/13 08:18:50;;;;;;;6.85;1.38;;;20.10;60.80;;;;;;5267178;26;20377;-71
2024/04/13 08:21:17;;;;;;;1.63;1.00;;;20.10;61.00;;;;;;5254225;26;20018;-72
2024/04/13 08:23:42;;;;;;;3.60;1.10;;;20.00;61.00;;;;;;5265881;26;20018;-72
2024/04/13 08:26:08;;;;;;;2.38;0.93;;;20.00;61.00;;;;;;5270849;26;20003;-69
2024/04/13 08:28:33;;;;;;;4.38;1.70;;;20.10;61.20;;;;;;5261964;26;20116;-69
2024/04/13 08:31:05;;;;;;;3.25;1.20;;;20.00;61.10;;;;;;5261583;26;20003;-68
2024/04/13 08:33:31;;;;;;;2.42;1.10;;;20.10;61.20;;;;;;5264227;26;20014;-69
2024/04/13 08:36:01;;;;;;;3.05;1.45;;;20.10;61.20;;;;;;5262188;26;21098;-72
2024/04/13 08:38:26;;;;;;;4.20;1.50;;;20.10;61.10;;;;;;5250790;26;20064;-70
2024/04/13 08:40:53;;;;;;;1.88;1.35;;;20.10;61.10;;;;;;5270131;26;20014;-71
2024/04/13 08:43:19;;;;;;;2.65;1.60;;;20.00;61.00;;;;;;5261678;26;20011;-71
2024/04/13 08:45:45;;;;;;;4.20;1.45;;;20.00;61.00;;;;;;5266622;26;20556;-72
2024/04/13 08:48:11;;;;;;;1.75;1.10;;;20.10;61.10;;;;;;5267378;26;20003;-69
2024/04/13 08:50:37;;;;;;;2.35;1.40;;;20.00;61.10;;;;;;5274741;26;20002;-72
2024/04/13 08:53:05;;;;;;;2.58;1.55;;;20.00;61.30;;;;;;5270376;26;20013;-70
2024/04/13 08:55:33;;;;;;;3.05;1.38;;;20.00;61.20;;;;;;5267727;26;20072;-72
2024/04/13 08:58:01;;;;;;;2.28;1.42;;;20.10;61.30;;;;;;5271978;26;20006;-70
2024/04/13 09:00:27;;;;;;;2.55;1.40;;;20.10;61.10;;;;;;5271655;26;20013;-72
2024/04/13 09:02:55;;;;;;;2.40;1.48;;;20.00;61.00;;;;;;5258002;26;20022;-72
2024/04/13 09:05:21;;;;;;;2.60;1.30;;;20.00;61.10;;;;;;5255609;26;19999;-72
2024/04/13 09:07:46;;;;;;;2.53;1.38;;;20.00;61.00;;;;;;5267279;26;20001;-72
2024/04/13 09:10:12;;;;;;;2.55;1.45;;;20.10;61.20;;;;;;5259320;26;20022;-72
2024/04/13 09:12:38;;;;;;;1.85;1.38;;;20.00;61.10;;;;;;5265333;26;20007;-72
2024/04/13 09:15:07;;;;;;;2.95;1.50;;;20.00;61.00;;;;;;5281239;26;20012;-70
2024/04/13 09:17:34;;;;;;;3.95;1.52;;;20.00;61.10;;;;;;5268360;26;20010;-72
2024/04/13 09:20:07;;;;;;;1.98;1.73;;;20.00;61.00;;;;;;5263046;26;20088;-70
2024/04/13 09:22:34;;;;;;;2.10;1.20;;;20.00;61.20;;;;;;5275087;26;20012;-70
2024/04/13 09:24:59;;;;;;;2.38;1.38;;;20.10;61.10;;;;;;5258048;26;20726;-70
2024/04/13 09:27:28;;;;;;;1.33;1.08;;;20.10;60.90;;;;;;5270366;26;20011;-71
2024/04/13 09:30:05;;;;;;;1.90;1.17;;;20.10;60.90;;;;;;5267425;26;20002;-72
2024/04/13 09:32:31;;;;;;;2.72;1.45;;;20.00;60.80;;;;;;5271142;26;20002;-71
2024/04/13 09:35:06;;;;;;;1.58;1.30;;;20.00;60.80;;;;;;5262230;26;20010;-72
2024/04/13 09:37:32;;;;;;;1.70;1.25;;;20.10;60.90;;;;;;5256891;26;20106;-72
2024/04/13 09:40:02;;;;;;;2.78;1.40;;;20.00;61.00;;;;;;5250710;26;20002;-70
2024/04/13 09:42:27;;;;;;;2.47;1.38;;;20.10;60.90;;;;;;5250734;26;20066;-69
2024/04/13 09:45:01;;;;;;;2.10;1.23;;;20.10;60.90;;;;;;5260361;26;20005;-70
2024/04/13 09:47:27;;;;;;;2.63;1.30;;;20.10;60.90;;;;;;5253378;26;20006;-69
2024/04/13 09:49:52;;;;;;;3.67;1.45;;;20.10;60.90;;;;;;5257934;26;20024;-70
2024/04/13 09:52:18;;;;;;;3.58;1.20;;;20.10;60.80;;;;;;5257658;26;20559;-70
2024/04/13 09:54:44;;;;;;;2.47;1.42;;;20.10;60.80;;;;;;5255557;26;20042;-69
2024/04/13 09:57:10;;;;;;;2.47;1.25;;;20.10;60.80;;;;;;5274317;26;20109;-70
2024/04/13 09:59:38;;;;;;;1.17;0.98;;;20.10;60.80;;;;;;5262556;26;20014;-70
2024/04/13 10:02:04;;;;;;;1.70;1.00;;;20.10;60.70;;;;;;5270662;26;20034;-69
2024/04/13 10:04:29;;;;;;;1.40;1.10;;;20.10;60.80;;;;;;5269671;26;19999;-69
2024/04/13 10:06:57;;;;;;;2.75;1.00;;;20.10;60.80;;;;;;5269967;26;20346;-70
2024/04/13 10:09:24;;;;;;;1.02;0.93;;;20.10;60.70;;;;;;5265647;26;20010;-69
2024/04/13 10:11:52;;;;;;;1.80;1.23;;;20.10;60.60;;;;;;5270580;26;20017;-71
2024/04/13 10:14:20;;;;;;;2.03;1.30;;;20.10;60.80;;;;;;5263505;26;20006;-70
2024/04/13 10:16:47;;;;;;;1.55;1.23;;;20.10;60.70;;;;;;5274736;26;20002;-71
2024/04/13 10:19:14;;;;;;;1.70;1.27;;;20.10;60.60;;;;;;5260834;26;20002;-69
2024/04/13 10:21:40;;;;;;;2.83;0.93;;;20.10;60.70;;;;;;5263053;26;20010;-69
2024/04/13 10:24:14;;;;;;;2.15;1.23;;;20.20;60.60;;;;;;5272845;26;20595;-69
2024/04/13 10:26:39;;;;;;;2.13;1.17;;;20.20;60.60;;;;;;5266241;26;20422;-69
2024/04/13 10:29:05;;;;;;;2.17;1.20;;;20.10;60.60;;;;;;5266210;26;20194;-70
2024/04/13 10:31:31;;;;;;;1.33;1.10;;;20.20;60.70;;;;;;5269667;26;20317;-69
2024/04/13 10:33:57;;;;;;;3.65;1.23;;;20.10;60.60;;;;;;5266106;26;20013;-70
2024/04/13 10:36:31;;;;;;;2.95;1.02;;;20.10;60.70;;;;;;5270935;26;20002;-70
2024/04/13 10:38:58;;;;;;;1.83;1.27;;;20.10;60.70;;;;;;5265098;26;20483;-71
2024/04/13 10:41:34;;;;;;;1.65;1.13;;;20.10;60.70;;;;;;5277446;26;20007;-70
2024/04/13 10:44:01;;;;;;;1.88;1.42;;;20.10;60.70;;;;;;5267753;26;20016;-69
2024/04/13 10:46:27;;;;;;;2.58;1.00;;;20.10;60.70;;;;;;5265719;26;20010;-70
2024/04/13 10:48:53;;;;;;;1.73;1.13;;;20.10;60.70;;;;;;5263589;26;20476;-71
2024/04/13 10:51:21;;;;;;;3.55;1.27;;;20.10;60.80;;;;;;5252349;26;20046;-70
2024/04/13 10:53:47;;;;;;;1.10;0.90;;;20.10;60.80;;;;;;5270062;26;20503;-70
2024/04/13 10:56:13;;;;;;;2.95;1.20;;;20.10;60.80;;;;;;5264980;26;20416;-70
2024/04/13 10:58:39;;;;;;;2.65;1.20;;;20.20;60.90;;;;;;5266531;26;20061;-71
2024/04/13 11:01:05;;;;;;;1.55;1.13;;;20.10;60.90;;;;;;5262744;26;20384;-70
2024/04/13 11:03:31;;;;;;;2.03;1.10;;;20.20;61.00;;;;;;5247272;26;20074;-71
2024/04/13 11:05:58;;;;;;;4.15;1.17;;;20.20;61.00;;;;;;5258681;26;20338;-71
2024/04/13 11:08:24;;;;;;;2.30;1.42;;;20.20;60.90;;;;;;5247270;26;20459;-68
2024/04/13 11:10:53;;;;;;;2.25;1.50;;;20.20;61.00;;;;;;5274602;26;20012;-71
2024/04/13 11:13:19;;;;;;;2.15;1.25;;;20.20;61.10;;;;;;5271140;26;20002;-70
2024/04/13 11:15:45;;;;;;;1.48;1.23;;;20.20;61.00;;;;;;5276874;26;20434;-68
2024/04/13 11:18:11;;;;;;;2.97;1.45;;;20.20;61.00;;;;;;5267568;26;20100;-70
2024/04/13 11:20:38;;;;;;;2.30;1.17;;;20.20;61.00;;;;;;5266261;26;20015;-70
2024/04/13 11:23:05;;;;;;;3.33;1.70;;;20.20;61.00;;;;;;5276937;26;20037;-70
2024/04/13 11:25:30;;;;;;;3.05;1.63;;;20.20;61.00;;;;;;5270332;26;20030;-69
2024/04/13 11:27:57;;;;;;;2.38;1.13;;;20.20;61.20;;;;;;5274153;26;19998;-72
2024/04/13 11:30:24;;;;;;;1.60;1.40;;;20.20;61.10;;;;;;5261317;26;20561;-70
2024/04/13 11:32:50;;;;;;;2.97;1.60;;;20.20;61.20;;;;;;5260257;26;20010;-70
2024/04/13 11:35:16;;;;;;;1.85;1.33;;;20.20;61.10;;;;;;5256721;26;20002;-69
2024/04/13 11:37:52;;;;;;;2.25;1.42;;;20.20;61.10;;;;;;5248005;26;20421;-69
2024/04/13 11:40:18;;;;;;;1.98;1.40;;;20.20;61.20;;;;;;5243205;26;20018;-69
2024/04/13 11:42:43;;;;;;;2.22;1.58;;;20.30;61.20;;;;;;5247610;26;20438;-68
2024/04/13 11:45:10;;;;;;;2.80;1.30;;;20.20;61.20;;;;;;5250955;26;20465;-68
2024/04/13 11:47:35;;;;;;;3.53;1.50;;;20.30;61.40;;;;;;5235707;26;20073;-69
2024/04/13 11:50:02;;;;;;;2.15;1.50;;;20.30;61.40;;;;;;5231726;26;20002;-69
2024/04/13 11:52:28;;;;;;;1.65;1.50;;;20.30;61.40;;;;;;5261289;26;19999;-69
2024/04/13 11:54:56;;;;;;;2.45;1.55;;;20.30;61.60;;;;;;5250708;26;19997;-72
2024/04/13 11:57:21;;;;;;;1.58;1.48;;;20.30;61.70;;;;;;5271483;26;20007;-70
2024/04/13 11:59:48;;;;;;;4.05;1.50;;;20.30;61.50;;;;;;5258446;26;20026;-68
2024/04/13 12:02:13;;;;;;;1.38;1.27;;;20.30;61.60;;;;;;5222501;26;20014;-69
2024/04/13 12:04:40;;;;;;;2.20;1.30;;;20.30;61.50;;;;;;5266553;26;20493;-68
2024/04/13 12:07:11;;;;;;;3.50;1.63;;;20.30;61.40;;;;;;5270523;26;20352;-70
2024/04/13 12:09:38;;;;;;;1.45;1.25;;;20.30;61.50;;;;;;5256106;26;20014;-68
2024/04/13 12:12:04;;;;;;;2.30;1.38;;;20.30;61.60;;;;;;5273809;26;20508;-69
2024/04/13 12:14:30;;;;;;;1.45;1.10;;;20.30;61.50;;;;;;5277303;26;20006;-68
2024/04/13 12:16:55;;;;;;;1.92;1.60;;;20.30;61.60;;;;;;5277904;26;20075;-71
2024/04/13 12:19:21;;;;;;;2.60;1.30;;;20.30;61.60;;;;;;5278288;26;20063;-70
2024/04/13 12:21:46;;;;;;;2.30;1.40;;;20.30;61.50;;;;;;5270202;26;20474;-70
2024/04/13 12:24:12;;;;;;;2.20;1.67;;;20.30;61.40;;;;;;5278051;26;19997;-70
2024/04/13 12:26:37;;;;;;;1.75;1.23;;;20.30;61.50;;;;;;5273788;26;20002;-71
2024/04/13 12:29:03;;;;;;;4.43;1.73;;;20.30;61.60;;;;;;5270203;26;20077;-72
2024/04/13 12:31:29;;;;;;;6.05;1.90;;;20.30;61.60;;;;;;5270609;26;20069;-69
2024/04/13 12:33:54;;;;;;;2.58;1.25;;;20.30;61.60;;;;;;5272756;26;20091;-72
2024/04/13 12:36:20;;;;;;;2.10;1.38;;;20.30;61.60;;;;;;5261105;26;20701;-71
2024/04/13 12:38:45;;;;;;;2.13;1.40;;;20.30;61.40;;;;;;5274247;26;20078;-70
2024/04/13 12:41:13;;;;;;;1.60;1.17;;;20.30;61.50;;;;;;5263372;26;19994;-71
2024/04/13 12:43:39;;;;;;;3.03;1.45;;;20.30;61.50;;;;;;5270117;26;20010;-71